Time;durP1;ratioP1;P1;durP2;ratioP2;P2;SDS_P1;SDS_P2;PMS_P1;PMS_P2;Temp;Humidity;BMP_temperature;BMP_pressure;BME280_temperature;BME280_humidity;BME280_pressure;Samples;Min_cycle;Max_cycle;Signal;HPM_P1;HPM_P2
2022/05/12 00:01:55;;;;;;;8.10;1.97;;;;;;;;;;5955377;23;20186;-84
2022/05/12 00:04:23;;;;;;;1.60;1.10;;;;;;;;;;6072720;23;20240;-84
2022/05/12 00:14:20;;;;;;;2.40;1.33;;;;;;;;;;6005778;23;20177;-84
2022/05/12 00:16:48;;;;;;;7.03;2.20;;;;;;;;;;6072116;23;20185;-84
2022/05/12 00:19:18;;;;;;;1.37;1.27;;;;;;;;;;6072333;23;20180;-83
2022/05/12 00:21:47;;;;;;;3.43;0.90;;;;;;;;;;6072849;23;20185;-83
2022/05/12 00:24:16;;;;;;;4.37;3.37;;;;;;;;;;6072295;23;20177;-83
2022/05/12 00:26:44;;;;;;;3.60;2.07;;;;;;;;;;6072405;23;20264;-84
2022/05/12 00:29:13;;;;;;;4.33;2.50;;;;;;;;;;6097833;23;20236;-83
2022/05/12 00:31:42;;;;;;;1.47;1.37;;;;;;;;;;6072163;23;20236;-84
2022/05/12 00:34:12;;;;;;;3.17;2.23;;;;;;;;;;6072037;23;20264;-84
2022/05/12 00:36:41;;;;;;;3.67;1.00;;;;;;;;;;6097380;23;20208;-84
2022/05/12 01:05:52;;;;;;;1.40;1.17;;;;;;;;;;5720547;24;20271;-84
2022/05/12 01:08:21;;;;;;;4.57;2.07;;;;;;;;;;5953040;24;20196;-84
2022/05/12 01:10:52;;;;;;;4.63;2.73;;;;;;;;;;5980768;24;20201;-84
2022/05/12 01:13:27;;;;;;;3.73;2.03;;;;;;;;;;6060441;23;20188;-84
2022/05/12 01:15:57;;;;;;;12.23;2.90;;;;;;;;;;6072095;23;20184;-84
2022/05/12 01:25:57;;;;;;;10.07;4.43;;;;;;;;;;6031592;23;20210;-84
2022/05/12 01:28:27;;;;;;;26.43;4.47;;;;;;;;;;6009048;23;20179;-84
2022/05/12 01:30:56;;;;;;;3.57;2.10;;;;;;;;;;6070855;23;20255;-84
2022/05/12 01:45:30;;;;;;;3.63;2.60;;;;;;;;;;5841221;24;20213;-84
2022/05/12 01:47:58;;;;;;;5.07;3.50;;;;;;;;;;5973641;23;20236;-84
2022/05/12 02:01:35;;;;;;;6.93;4.63;;;;;;;;;;5629477;25;20178;-84
2022/05/12 02:11:48;;;;;;;2.77;1.17;;;;;;;;;;5662194;24;20190;-84
2022/05/12 02:14:31;;;;;;;1.77;1.67;;;;;;;;;;5809712;24;20186;-84
2022/05/12 02:17:01;;;;;;;3.90;1.93;;;;;;;;;;5872650;24;20182;-84
2022/05/12 02:56:00;;;;;;;1.77;1.67;;;;;;;;;;5902065;24;20194;-83
2022/05/12 02:58:29;;;;;;;10.30;2.20;;;;;;;;;;5924844;24;20185;-84
2022/05/12 03:00:58;;;;;;;1.80;0.90;;;;;;;;;;5901756;24;20177;-83
2022/05/12 03:03:27;;;;;;;4.83;1.43;;;;;;;;;;5901954;24;20327;-84
2022/05/12 03:05:55;;;;;;;3.67;1.77;;;;;;;;;;5901719;24;20181;-84
2022/05/12 03:08:24;;;;;;;0.70;0.70;;;;;;;;;;5901920;24;20185;-84
2022/05/12 03:10:53;;;;;;;2.13;1.87;;;;;;;;;;5901809;24;20197;-84
2022/05/12 03:13:24;;;;;;;1.70;1.60;;;;;;;;;;5901738;24;20185;-84
2022/05/12 03:15:52;;;;;;;12.47;2.13;;;;;;;;;;5924709;24;20254;-84
2022/05/12 03:18:21;;;;;;;2.33;1.60;;;;;;;;;;5945098;23;20176;-84
2022/05/12 03:20:49;;;;;;;2.93;2.73;;;;;;;;;;5984956;23;20278;-84
2022/05/12 03:23:23;;;;;;;3.07;1.50;;;;;;;;;;5986488;23;20179;-84
2022/05/12 03:25:52;;;;;;;1.00;1.00;;;;;;;;;;6009929;23;20179;-84
2022/05/12 03:28:21;;;;;;;3.27;1.83;;;;;;;;;;6010159;23;20179;-84
2022/05/12 03:30:51;;;;;;;0.70;0.70;;;;;;;;;;5986380;23;20205;-84
2022/05/12 03:33:20;;;;;;;6.20;2.40;;;;;;;;;;5986525;23;20262;-84
2022/05/12 03:35:49;;;;;;;10.80;3.53;;;;;;;;;;6009807;23;20183;-84
2022/05/12 03:38:17;;;;;;;3.20;1.70;;;;;;;;;;5986479;23;20189;-84
2022/05/12 03:40:46;;;;;;;0.60;0.60;;;;;;;;;;5986474;23;20180;-84
2022/05/12 03:44:46;;;;;;;2.83;1.43;;;;;;;;;;6009535;23;20211;-84
2022/05/12 03:46:04;;;;;;;4.63;1.87;;;;;;;;;;5986022;23;20179;-84
2022/05/12 03:48:32;;;;;;;0.83;0.83;;;;;;;;;;6009741;23;20179;-84
2022/05/12 03:51:03;;;;;;;0.60;0.60;;;;;;;;;;6009595;23;20359;-84
2022/05/12 03:53:32;;;;;;;5.67;1.87;;;;;;;;;;6010147;23;20183;-84
2022/05/12 03:56:01;;;;;;;3.40;2.10;;;;;;;;;;5986192;23;20179;-84
2022/05/12 03:58:31;;;;;;;8.97;2.40;;;;;;;;;;5986467;23;20552;-83
2022/05/12 04:01:00;;;;;;;0.90;0.90;;;;;;;;;;6009850;23;20519;-83
2022/05/12 04:03:30;;;;;;;5.70;3.50;;;;;;;;;;5986276;23;20209;-84
2022/05/12 04:06:01;;;;;;;6.63;2.87;;;;;;;;;;5986097;23;20190;-84
2022/05/12 04:08:30;;;;;;;3.70;2.77;;;;;;;;;;5986058;23;20283;-84
2022/05/12 04:10:58;;;;;;;1.83;1.67;;;;;;;;;;6009781;23;20202;-84
2022/05/12 04:13:27;;;;;;;4.43;1.57;;;;;;;;;;6009868;23;20183;-84
2022/05/12 04:15:56;;;;;;;2.47;1.87;;;;;;;;;;5985817;23;20190;-84
2022/05/12 04:18:25;;;;;;;2.23;1.67;;;;;;;;;;5986261;23;20180;-84
2022/05/12 04:20:54;;;;;;;10.13;3.10;;;;;;;;;;6009148;23;20214;-84
2022/05/12 04:23:23;;;;;;;5.07;2.17;;;;;;;;;;6009552;23;20179;-83
2022/05/12 04:25:51;;;;;;;8.23;3.80;;;;;;;;;;5985969;23;20179;-84
2022/05/12 04:28:25;;;;;;;3.23;2.10;;;;;;;;;;6009355;23;20262;-84
2022/05/12 04:30:54;;;;;;;2.17;1.73;;;;;;;;;;6009229;23;20198;-84
2022/05/12 04:37:12;;;;;;;7.13;2.70;;;;;;;;;;5971088;23;20189;-83
2022/05/12 04:39:41;;;;;;;1.10;0.80;;;;;;;;;;6009512;23;20246;-84
2022/05/12 04:42:09;;;;;;;9.53;6.20;;;;;;;;;;5985952;23;20184;-84
2022/05/12 04:44:38;;;;;;;5.27;2.40;;;;;;;;;;5985969;23;20211;-83
2022/05/12 04:47:06;;;;;;;2.33;2.10;;;;;;;;;;6009178;23;20257;-84
2022/05/12 04:49:35;;;;;;;3.90;2.37;;;;;;;;;;6009533;23;20186;-84
2022/05/12 04:52:03;;;;;;;6.23;3.03;;;;;;;;;;5985543;23;20207;-84
2022/05/12 04:54:47;;;;;;;3.87;2.10;;;;;;;;;;6008811;23;20194;-84
2022/05/12 05:08:36;;;;;;;3.70;1.90;;;;;;;;;;5790708;24;20173;-84
2022/05/12 05:11:40;;;;;;;1.00;1.00;;;;;;;;;;5790812;24;20208;-84
2022/05/12 05:14:57;;;;;;;4.00;1.63;;;;;;;;;;5854674;24;20224;-84
2022/05/12 05:21:52;;;;;;;0.87;0.87;;;;;;;;;;5871115;24;20163;-84
2022/05/12 05:24:20;;;;;;;7.70;2.33;;;;;;;;;;5870982;24;20197;-84
2022/05/12 05:33:36;;;;;;;0.80;0.80;;;;;;;;;;6009213;23;20167;-84
2022/05/12 05:36:04;;;;;;;2.03;1.17;;;;;;;;;;5985102;23;20185;-84
2022/05/12 05:46:16;;;;;;;1.03;1.03;;;;;;;;;;5930004;24;20213;-83
2022/05/12 05:48:50;;;;;;;0.73;0.73;;;;;;;;;;5982286;23;20180;-83
2022/05/12 05:54:05;;;;;;;1.97;1.80;;;;;;;;;;6006671;23;20186;-82
2022/05/12 05:56:33;;;;;;;0.97;0.97;;;;;;;;;;5977337;23;20586;-82
2022/05/12 05:59:02;;;;;;;4.03;1.23;;;;;;;;;;5982782;23;20189;-82
2022/05/12 06:01:30;;;;;;;0.90;0.90;;;;;;;;;;6005245;23;20267;-82
2022/05/12 06:04:00;;;;;;;2.20;0.80;;;;;;;;;;5981399;23;20269;-82
2022/05/12 06:06:29;;;;;;;2.53;2.13;;;;;;;;;;5982560;23;20194;-81
2022/05/12 06:08:57;;;;;;;1.60;1.33;;;;;;;;;;5982161;23;20185;-81
2022/05/12 06:11:26;;;;;;;1.43;0.90;;;;;;;;;;5982723;23;20200;-81
2022/05/12 06:13:54;;;;;;;3.90;1.33;;;;;;;;;;5981777;23;20197;-84
2022/05/12 06:16:23;;;;;;;2.83;2.33;;;;;;;;;;6003902;23;20180;-82
2022/05/12 06:18:53;;;;;;;3.83;1.33;;;;;;;;;;5983048;23;20182;-83
2022/05/12 06:21:23;;;;;;;0.63;0.63;;;;;;;;;;6006613;23;20181;-87
2022/05/12 06:23:51;;;;;;;5.70;1.77;;;;;;;;;;5978008;23;20195;-86
2022/05/12 06:26:20;;;;;;;5.27;1.90;;;;;;;;;;6005353;23;20186;-88
2022/05/12 06:28:49;;;;;;;4.47;1.40;;;;;;;;;;5981217;23;20272;-86
2022/05/12 06:31:24;;;;;;;2.97;1.20;;;;;;;;;;5980590;23;20191;-85
2022/05/12 06:33:53;;;;;;;4.47;1.87;;;;;;;;;;5981276;23;20201;-88
2022/05/12 06:36:28;;;;;;;1.10;1.10;;;;;;;;;;6006178;23;20215;-88
2022/05/12 06:38:56;;;;;;;1.33;1.23;;;;;;;;;;6006716;23;20180;-89
2022/05/12 06:41:43;;;;;;;3.63;1.07;;;;;;;;;;5981899;23;20187;-88
2022/05/12 06:44:24;;;;;;;1.80;1.47;;;;;;;;;;5981450;23;20292;-87
2022/05/12 06:50:22;;;;;;;6.27;2.63;;;;;;;;;;5955255;23;20222;-87
2022/05/12 06:53:08;;;;;;;1.90;1.57;;;;;;;;;;5982413;23;20398;-86
2022/05/12 06:56:18;;;;;;;4.77;2.07;;;;;;;;;;5971746;23;20240;-86
2022/05/12 07:02:53;;;;;;;0.80;0.80;;;;;;;;;;5894895;24;20189;-87
2022/05/12 07:05:51;;;;;;;1.00;1.00;;;;;;;;;;5869475;24;20212;-86
2022/05/12 07:13:54;;;;;;;;;;;;;;;;;;;;;
2022/05/12 07:16:56;;;;;;;2.33;1.63;;;;;;;;;;5887689;24;20192;-87
2022/05/12 08:04:39;;;;;;;;;;;;;;;;;;;;;
2022/05/12 08:07:48;;;;;;;0.60;0.60;;;;;;;;;;5777267;24;20187;-87
2022/05/12 08:10:49;;;;;;;1.87;1.37;;;;;;;;;;5834293;24;20224;-86
2022/05/12 08:13:38;;;;;;;0.90;0.90;;;;;;;;;;5845180;24;20478;-85
2022/05/12 08:17:05;;;;;;;0.90;0.90;;;;;;;;;;5841888;24;20190;-85
2022/05/12 08:23:30;;;;;;;0.63;0.63;;;;;;;;;;5896781;24;20329;-87
2022/05/12 08:26:13;;;;;;;1.47;0.90;;;;;;;;;;5898287;24;20192;-87
2022/05/12 08:29:09;;;;;;;0.80;0.80;;;;;;;;;;5896126;24;20324;-88
2022/05/12 08:31:45;;;;;;;0.40;0.40;;;;;;;;;;5871849;24;20196;-85
2022/05/12 08:41:39;;;;;;;;;;;;;;;;;;;;;
2022/05/12 08:44:44;;;;;;;2.97;1.17;;;;;;;;;;5895507;24;20189;-85
2022/05/12 08:47:46;;;;;;;4.77;1.90;;;;;;;;;;5896285;24;20234;-85
2022/05/12 08:50:47;;;;;;;0.53;0.53;;;;;;;;;;5903111;24;20239;-86
2022/05/12 08:57:44;;;;;;;1.27;1.00;;;;;;;;;;5945141;24;20247;-85
2022/05/12 09:00:57;;;;;;;2.70;1.20;;;;;;;;;;5951263;24;20286;-87
2022/05/12 09:04:16;;;;;;;0.83;0.70;;;;;;;;;;5957167;24;20250;-86
2022/05/12 09:11:12;;;;;;;0.67;0.67;;;;;;;;;;5873495;24;20196;-85
2022/05/12 09:14:13;;;;;;;2.20;0.87;;;;;;;;;;5893515;24;20219;-82
2022/05/12 09:25:15;;;;;;;1.03;0.87;;;;;;;;;;5833581;24;20186;-84
2022/05/12 09:49:48;;;;;;;0.67;0.67;;;;;;;;;;5816128;24;20184;-84
2022/05/12 10:25:03;;;;;;;;;;;;;;;;;;;;;
2022/05/12 10:28:35;;;;;;;0.93;0.90;;;;;;;;;;6117583;23;20180;-84
2022/05/12 10:32:14;;;;;;;2.07;0.80;;;;;;;;;;6087329;23;20213;-86
2022/05/12 12:04:27;;;;;;;0.63;0.63;;;;;;;;;;6039033;23;20213;-83
2022/05/12 12:07:12;;;;;;;2.23;1.13;;;;;;;;;;6011950;23;20187;-84
2022/05/12 12:25:29;;;;;;;1.70;1.20;;;;;;;;;;5727608;24;20188;-81
2022/05/12 12:42:09;;;;;;;3.07;0.90;;;;;;;;;;5969191;23;20179;-83
2022/05/12 12:44:59;;;;;;;1.23;1.13;;;;;;;;;;6007080;23;20179;-83
2022/05/12 12:47:54;;;;;;;1.07;0.90;;;;;;;;;;6006774;23;20183;-84
2022/05/12 12:50:45;;;;;;;1.50;1.03;;;;;;;;;;5984383;23;20179;-83
2022/05/12 12:56:32;;;;;;;0.50;0.50;;;;;;;;;;5986671;23;20175;-85
2022/05/12 12:59:01;;;;;;;2.50;0.93;;;;;;;;;;5985825;23;20251;-85
2022/05/12 13:01:45;;;;;;;0.67;0.67;;;;;;;;;;6009605;23;20186;-84
2022/05/12 13:04:21;;;;;;;2.60;1.00;;;;;;;;;;6009153;23;20195;-84
2022/05/12 13:06:52;;;;;;;0.70;0.70;;;;;;;;;;6100765;23;20289;-84
2022/05/12 13:09:25;;;;;;;0.50;0.50;;;;;;;;;;6101820;23;20183;-84
2022/05/12 13:12:10;;;;;;;1.80;1.00;;;;;;;;;;6100749;23;20262;-84
2022/05/12 13:14:40;;;;;;;2.00;1.10;;;;;;;;;;6101622;23;20205;-85
2022/05/12 13:17:11;;;;;;;0.80;0.80;;;;;;;;;;6100882;23;20267;-84
2022/05/12 13:19:50;;;;;;;1.00;1.00;;;;;;;;;;6101360;23;20188;-85
2022/05/12 13:22:24;;;;;;;1.10;0.90;;;;;;;;;;6125454;23;20188;-86
2022/05/12 13:24:59;;;;;;;2.37;1.20;;;;;;;;;;6101809;23;20177;-84
2022/05/12 13:27:41;;;;;;;1.20;0.97;;;;;;;;;;6098569;23;20227;-86
2022/05/12 13:33:11;;;;;;;3.23;1.80;;;;;;;;;;6087405;23;20181;-88
2022/05/12 13:35:57;;;;;;;1.10;1.10;;;;;;;;;;6101985;23;20184;-87
2022/05/12 13:38:49;;;;;;;1.57;1.07;;;;;;;;;;6101639;23;20188;-88
2022/05/12 13:41:50;;;;;;;3.33;1.70;;;;;;;;;;6101597;23;20178;-87
2022/05/12 13:44:36;;;;;;;3.30;0.90;;;;;;;;;;6100669;23;20173;-87
2022/05/12 13:47:24;;;;;;;2.10;1.30;;;;;;;;;;6125385;23;20204;-87
2022/05/12 13:50:02;;;;;;;0.87;0.87;;;;;;;;;;6101674;23;20176;-86
2022/05/12 13:52:48;;;;;;;3.67;1.90;;;;;;;;;;6101607;23;20180;-86
2022/05/12 13:55:25;;;;;;;2.00;1.10;;;;;;;;;;6101145;23;20203;-86
2022/05/12 13:58:15;;;;;;;3.13;1.97;;;;;;;;;;6101395;23;20176;-86
2022/05/12 14:00:56;;;;;;;1.37;1.27;;;;;;;;;;6147709;23;20244;-86
2022/05/12 14:03:36;;;;;;;2.37;1.83;;;;;;;;;;6125837;23;20201;-85
2022/05/12 14:06:20;;;;;;;2.97;1.77;;;;;;;;;;6126271;23;20235;-86
2022/05/12 14:09:23;;;;;;;1.43;1.33;;;;;;;;;;6150411;23;20202;-85
2022/05/12 14:34:42;;;;;;;;;;;;;;;;;;;;;
2022/05/12 14:38:13;;;;;;;2.67;1.67;;;;;;;;;;5924812;23;20233;-88
2022/05/12 14:58:21;;;;;;;1.47;0.97;;;;;;;;;;6108697;23;20221;-86
2022/05/12 15:01:29;;;;;;;1.00;1.00;;;;;;;;;;6105528;23;20187;-86
2022/05/12 15:04:27;;;;;;;1.67;1.53;;;;;;;;;;6119948;23;20204;-86
2022/05/12 15:07:16;;;;;;;1.83;1.37;;;;;;;;;;6125669;23;20264;-86
2022/05/12 15:20:50;;;;;;;2.83;1.67;;;;;;;;;;5965402;24;20191;-86
2022/05/12 15:33:57;;;;;;;3.70;1.87;;;;;;;;;;5890721;24;20230;-85
2022/05/12 15:36:28;;;;;;;2.10;1.63;;;;;;;;;;5917167;24;20191;-86
2022/05/12 15:38:58;;;;;;;5.10;2.93;;;;;;;;;;5959955;24;20265;-86
2022/05/12 15:41:27;;;;;;;1.93;1.30;;;;;;;;;;5959500;24;20188;-86
2022/05/12 15:43:55;;;;;;;2.93;2.03;;;;;;;;;;5959391;24;20192;-86
2022/05/12 15:46:24;;;;;;;1.20;1.10;;;;;;;;;;5959422;24;20179;-86
2022/05/12 15:48:54;;;;;;;8.40;3.50;;;;;;;;;;5959518;24;20210;-86
2022/05/12 15:51:22;;;;;;;3.33;1.73;;;;;;;;;;5982740;24;20185;-86
2022/05/12 15:53:53;;;;;;;4.57;2.33;;;;;;;;;;5959811;24;20196;-87
2022/05/12 15:56:23;;;;;;;2.63;1.70;;;;;;;;;;5959074;24;20210;-86
2022/05/12 15:58:52;;;;;;;3.70;1.93;;;;;;;;;;5959022;24;20195;-86
2022/05/12 16:01:21;;;;;;;4.20;1.73;;;;;;;;;;5982595;24;20177;-86
2022/05/12 16:03:51;;;;;;;0.60;0.60;;;;;;;;;;5972189;23;20209;-86
2022/05/12 16:06:20;;;;;;;4.67;2.17;;;;;;;;;;6028201;23;20200;-86
2022/05/12 16:08:48;;;;;;;2.30;1.33;;;;;;;;;;6126977;23;20189;-86
2022/05/12 16:11:35;;;;;;;3.50;1.40;;;;;;;;;;6128479;23;20175;-85
2022/05/12 16:14:04;;;;;;;4.17;1.43;;;;;;;;;;6128073;23;20190;-86
2022/05/12 16:16:35;;;;;;;6.07;2.17;;;;;;;;;;6125857;23;20213;-86
2022/05/12 16:19:04;;;;;;;1.63;1.03;;;;;;;;;;6127608;23;20186;-86
2022/05/12 16:21:32;;;;;;;3.97;3.67;;;;;;;;;;6126719;23;20185;-86
2022/05/12 16:24:01;;;;;;;2.63;1.33;;;;;;;;;;6126090;23;20180;-86
2022/05/12 16:26:32;;;;;;;0.83;0.83;;;;;;;;;;6127661;23;20190;-86
2022/05/12 16:29:03;;;;;;;2.20;0.80;;;;;;;;;;6126236;23;20274;-86
2022/05/12 16:31:32;;;;;;;1.60;1.13;;;;;;;;;;6127792;23;20182;-87
2022/05/12 16:34:03;;;;;;;0.97;0.80;;;;;;;;;;6126363;23;20183;-86
2022/05/12 16:36:31;;;;;;;1.90;1.57;;;;;;;;;;6127390;23;20213;-87
2022/05/12 16:39:00;;;;;;;2.37;1.80;;;;;;;;;;6126799;23;20213;-86
2022/05/12 16:41:28;;;;;;;4.80;1.80;;;;;;;;;;6127425;23;20186;-86
2022/05/12 16:43:58;;;;;;;2.83;1.37;;;;;;;;;;6126397;23;20180;-86
2022/05/12 16:46:26;;;;;;;1.03;0.77;;;;;;;;;;6126235;23;20179;-86
2022/05/12 16:48:55;;;;;;;26.77;2.77;;;;;;;;;;6126714;23;20243;-86
2022/05/12 16:51:23;;;;;;;4.37;1.77;;;;;;;;;;6126279;23;20237;-86
2022/05/12 16:53:52;;;;;;;1.87;1.70;;;;;;;;;;6126157;23;20206;-86
2022/05/12 16:56:23;;;;;;;3.83;2.10;;;;;;;;;;6124957;23;20205;-86
2022/05/12 16:58:52;;;;;;;1.53;1.07;;;;;;;;;;6125946;23;20186;-86
2022/05/12 17:01:22;;;;;;;1.07;0.93;;;;;;;;;;6127322;23;20210;-86
2022/05/12 17:03:54;;;;;;;3.07;1.40;;;;;;;;;;6101812;23;20201;-87
2022/05/12 17:06:25;;;;;;;1.00;0.97;;;;;;;;;;6101656;23;20189;-87
2022/05/12 17:08:54;;;;;;;0.70;0.70;;;;;;;;;;6102039;23;20190;-87
2022/05/12 17:11:45;;;;;;;3.47;1.50;;;;;;;;;;6101654;23;20181;-87
2022/05/12 17:14:13;;;;;;;2.83;1.90;;;;;;;;;;6127032;23;20207;-87
2022/05/12 17:16:43;;;;;;;3.77;1.10;;;;;;;;;;6101843;23;20254;-84
2022/05/12 17:19:12;;;;;;;3.70;2.00;;;;;;;;;;6127449;23;20179;-85
2022/05/12 17:21:40;;;;;;;4.90;2.13;;;;;;;;;;6101357;23;20189;-86
2022/05/12 17:24:09;;;;;;;2.40;1.17;;;;;;;;;;6127462;23;20178;-86
2022/05/12 17:26:39;;;;;;;1.80;0.87;;;;;;;;;;6101715;23;20174;-86
2022/05/12 17:29:07;;;;;;;2.27;1.63;;;;;;;;;;6101895;23;20191;-86
2022/05/12 17:31:36;;;;;;;2.50;1.40;;;;;;;;;;6101619;23;20180;-86
2022/05/12 17:34:06;;;;;;;2.00;1.43;;;;;;;;;;6127790;23;20192;-86
2022/05/12 17:36:34;;;;;;;3.47;1.93;;;;;;;;;;6101652;23;20203;-87
2022/05/12 17:39:03;;;;;;;1.67;1.17;;;;;;;;;;6101601;23;20180;-84
2022/05/12 17:41:31;;;;;;;1.50;1.40;;;;;;;;;;6101207;23;20183;-84
2022/05/12 17:44:04;;;;;;;0.83;0.83;;;;;;;;;;6100724;23;20205;-84
2022/05/12 17:46:33;;;;;;;3.80;1.27;;;;;;;;;;6125510;23;20263;-84
2022/05/12 17:49:01;;;;;;;1.00;0.90;;;;;;;;;;6126633;23;20174;-84
2022/05/12 17:51:33;;;;;;;1.80;1.23;;;;;;;;;;6100498;23;20242;-84
2022/05/12 17:54:01;;;;;;;4.17;1.63;;;;;;;;;;6126489;23;20187;-84
2022/05/12 17:56:30;;;;;;;5.77;2.00;;;;;;;;;;6101188;23;20195;-84
2022/05/12 17:58:59;;;;;;;3.77;1.40;;;;;;;;;;6100551;23;20302;-84
2022/05/12 18:01:28;;;;;;;3.27;1.77;;;;;;;;;;6101026;23;20182;-84
2022/05/12 18:03:56;;;;;;;8.60;3.00;;;;;;;;;;6101438;23;20270;-84
2022/05/12 18:06:25;;;;;;;2.53;1.57;;;;;;;;;;6126617;23;20170;-84
2022/05/12 18:08:55;;;;;;;4.27;2.20;;;;;;;;;;6100969;23;20182;-84
2022/05/12 18:11:24;;;;;;;1.57;0.70;;;;;;;;;;6100970;23;20216;-84
2022/05/12 18:13:53;;;;;;;6.07;1.80;;;;;;;;;;6101180;23;20185;-84
2022/05/12 18:16:21;;;;;;;7.57;2.10;;;;;;;;;;6100868;23;20195;-84
2022/05/12 18:18:50;;;;;;;2.00;1.40;;;;;;;;;;6101157;23;20174;-84
2022/05/12 18:21:25;;;;;;;4.30;1.97;;;;;;;;;;6100741;23;20173;-84
2022/05/12 18:23:55;;;;;;;8.33;1.43;;;;;;;;;;6100771;23;20268;-84
2022/05/12 18:26:25;;;;;;;1.60;0.67;;;;;;;;;;6101001;23;20176;-84
2022/05/12 18:28:54;;;;;;;2.77;1.57;;;;;;;;;;6126316;23;20183;-84
2022/05/12 18:31:22;;;;;;;2.17;1.00;;;;;;;;;;6100526;23;20177;-84
2022/05/12 18:33:51;;;;;;;3.07;0.97;;;;;;;;;;6100838;23;20189;-84
2022/05/12 18:36:19;;;;;;;3.90;1.43;;;;;;;;;;6099478;23;20196;-83
2022/05/12 18:38:48;;;;;;;0.60;0.60;;;;;;;;;;6100628;23;20187;-83
2022/05/12 18:41:18;;;;;;;8.33;3.07;;;;;;;;;;6100710;23;20183;-81
2022/05/12 18:43:48;;;;;;;1.27;0.87;;;;;;;;;;6126309;23;20171;-84
2022/05/12 18:46:16;;;;;;;1.47;1.17;;;;;;;;;;6100186;23;20207;-83
2022/05/12 18:48:45;;;;;;;4.90;1.80;;;;;;;;;;6100290;23;20181;-83
2022/05/12 18:51:13;;;;;;;2.57;1.27;;;;;;;;;;6100905;23;20185;-83
2022/05/12 18:53:42;;;;;;;5.27;1.33;;;;;;;;;;6102527;23;20182;-83
2022/05/12 18:56:12;;;;;;;4.30;2.50;;;;;;;;;;6102930;23;20196;-84
2022/05/12 18:58:41;;;;;;;2.87;1.17;;;;;;;;;;6102880;23;20183;-83
2022/05/12 19:01:11;;;;;;;5.43;1.53;;;;;;;;;;6127873;23;20225;-83
2022/05/12 19:03:39;;;;;;;3.60;1.30;;;;;;;;;;6128008;23;20196;-84
2022/05/12 19:06:08;;;;;;;5.73;1.70;;;;;;;;;;6102244;23;20170;-84
2022/05/12 19:08:36;;;;;;;8.50;2.20;;;;;;;;;;6102978;23;20181;-84
2022/05/12 19:11:05;;;;;;;3.63;1.90;;;;;;;;;;6102447;23;20187;-83
2022/05/12 19:13:38;;;;;;;4.07;1.30;;;;;;;;;;6102225;23;20239;-83
2022/05/12 19:16:09;;;;;;;4.13;1.47;;;;;;;;;;6102597;23;20219;-84
2022/05/12 19:18:42;;;;;;;7.97;2.73;;;;;;;;;;6102436;23;20180;-84
2022/05/12 19:21:10;;;;;;;2.73;1.53;;;;;;;;;;6102525;23;20173;-83
2022/05/12 19:23:39;;;;;;;3.73;1.07;;;;;;;;;;6102969;23;20176;-84
2022/05/12 19:26:08;;;;;;;1.20;1.10;;;;;;;;;;6102334;23;20184;-84
2022/05/12 19:28:36;;;;;;;1.37;1.27;;;;;;;;;;6128458;23;20257;-84
2022/05/12 19:31:07;;;;;;;1.40;1.30;;;;;;;;;;6102723;23;20190;-84
2022/05/12 19:33:39;;;;;;;0.90;0.90;;;;;;;;;;6128449;23;20176;-84
2022/05/12 19:36:08;;;;;;;7.93;2.27;;;;;;;;;;6102438;23;20186;-84
2022/05/12 19:38:38;;;;;;;1.10;1.10;;;;;;;;;;6102185;23;20180;-84
2022/05/12 19:41:06;;;;;;;4.90;2.27;;;;;;;;;;6126644;23;20204;-84
2022/05/12 19:43:37;;;;;;;3.20;1.50;;;;;;;;;;6102561;23;20175;-84
2022/05/12 19:46:05;;;;;;;7.53;1.70;;;;;;;;;;6102218;23;20183;-83
2022/05/12 19:48:35;;;;;;;3.20;1.10;;;;;;;;;;6102333;23;20224;-83
2022/05/12 19:51:05;;;;;;;3.60;1.33;;;;;;;;;;6102442;23;20183;-84
2022/05/12 19:53:35;;;;;;;9.00;1.60;;;;;;;;;;6102565;23;20182;-84
2022/05/12 19:56:04;;;;;;;1.93;1.07;;;;;;;;;;6127622;23;20191;-84
2022/05/12 19:58:32;;;;;;;0.60;0.60;;;;;;;;;;6126105;23;20231;-83
2022/05/12 20:01:01;;;;;;;2.47;1.13;;;;;;;;;;6123030;23;20211;-83
2022/05/12 20:03:31;;;;;;;1.33;0.80;;;;;;;;;;6127135;23;20210;-83
2022/05/12 20:05:59;;;;;;;3.50;0.90;;;;;;;;;;6126143;23;20247;-83
2022/05/12 20:08:29;;;;;;;0.97;0.90;;;;;;;;;;6126477;23;20180;-83
2022/05/12 20:10:58;;;;;;;2.97;1.30;;;;;;;;;;6126828;23;20180;-83
2022/05/12 20:13:27;;;;;;;1.53;1.43;;;;;;;;;;6150519;23;20172;-82
2022/05/12 20:15:56;;;;;;;7.67;2.20;;;;;;;;;;6126213;23;20208;-83
2022/05/12 20:18:25;;;;;;;1.10;1.07;;;;;;;;;;6125710;23;20203;-83
2022/05/12 20:20:53;;;;;;;0.67;0.67;;;;;;;;;;6125899;23;20179;-84
2022/05/12 20:23:22;;;;;;;1.60;0.80;;;;;;;;;;6125903;23;20183;-83
2022/05/12 20:25:52;;;;;;;5.50;1.87;;;;;;;;;;6126740;23;20183;-84
2022/05/12 20:28:21;;;;;;;2.37;2.20;;;;;;;;;;6126448;23;20182;-83
2022/05/12 20:30:49;;;;;;;0.80;0.80;;;;;;;;;;6126242;23;20186;-84
2022/05/12 20:33:18;;;;;;;2.50;1.37;;;;;;;;;;6126305;23;20184;-84
2022/05/12 20:35:46;;;;;;;4.00;2.40;;;;;;;;;;6126434;23;20179;-83
2022/05/12 20:38:15;;;;;;;5.50;1.50;;;;;;;;;;6127121;23;20195;-83
2022/05/12 20:40:44;;;;;;;10.70;1.43;;;;;;;;;;6126327;23;20179;-83
2022/05/12 20:43:15;;;;;;;4.87;2.20;;;;;;;;;;6125980;23;20181;-83
2022/05/12 20:46:03;;;;;;;11.20;2.23;;;;;;;;;;6126196;23;20183;-84
2022/05/12 20:48:35;;;;;;;1.43;0.87;;;;;;;;;;6125832;23;20176;-83
2022/05/12 20:51:04;;;;;;;1.67;0.97;;;;;;;;;;6127487;23;20180;-83
2022/05/12 20:53:33;;;;;;;8.67;2.43;;;;;;;;;;6125594;23;20305;-83
2022/05/12 20:56:04;;;;;;;5.20;3.53;;;;;;;;;;6125899;23;20179;-84
2022/05/12 20:58:34;;;;;;;3.30;1.23;;;;;;;;;;6125991;23;20205;-84
2022/05/12 21:01:05;;;;;;;1.10;1.10;;;;;;;;;;6127384;23;20203;-84
2022/05/12 21:03:34;;;;;;;2.97;1.40;;;;;;;;;;6101534;23;20210;-84
2022/05/12 21:06:02;;;;;;;1.60;1.50;;;;;;;;;;6126998;23;20179;-84
2022/05/12 21:08:34;;;;;;;2.93;1.73;;;;;;;;;;6101279;23;20198;-84
2022/05/12 21:11:03;;;;;;;2.67;1.63;;;;;;;;;;6127018;23;20175;-83
2022/05/12 21:13:33;;;;;;;5.93;2.40;;;;;;;;;;6101072;23;20179;-84
2022/05/12 21:16:04;;;;;;;3.07;2.10;;;;;;;;;;6101403;23;20221;-84
2022/05/12 21:18:33;;;;;;;1.50;1.40;;;;;;;;;;6101569;23;20196;-84
2022/05/12 21:21:01;;;;;;;9.80;1.07;;;;;;;;;;6101303;23;20180;-84
2022/05/12 21:23:30;;;;;;;3.23;1.90;;;;;;;;;;6101215;23;20183;-84
2022/05/12 21:25:58;;;;;;;3.20;1.33;;;;;;;;;;6101400;23;20185;-84
2022/05/12 21:28:27;;;;;;;1.53;1.23;;;;;;;;;;6101317;23;20179;-83
2022/05/12 21:30:57;;;;;;;3.20;1.47;;;;;;;;;;6100859;23;20257;-84
2022/05/12 21:33:27;;;;;;;8.63;2.33;;;;;;;;;;6100914;23;20265;-84
2022/05/12 21:35:59;;;;;;;14.13;2.70;;;;;;;;;;6101340;23;20179;-84
2022/05/12 21:38:30;;;;;;;2.03;1.30;;;;;;;;;;6125559;23;20203;-84
2022/05/12 21:40:59;;;;;;;6.47;2.33;;;;;;;;;;6101261;23;20180;-84
2022/05/12 21:43:27;;;;;;;3.50;1.73;;;;;;;;;;6126757;23;20183;-83
2022/05/12 21:45:56;;;;;;;17.30;2.83;;;;;;;;;;6101004;23;20182;-84
2022/05/12 21:48:26;;;;;;;7.83;1.70;;;;;;;;;;6100693;23;20187;-83
2022/05/12 21:50:57;;;;;;;2.00;0.77;;;;;;;;;;6101234;23;20210;-83
2022/05/12 21:53:27;;;;;;;7.00;1.73;;;;;;;;;;6100743;23;20183;-83
2022/05/12 21:55:57;;;;;;;8.77;2.83;;;;;;;;;;6100873;23;20526;-83
2022/05/12 22:01:30;;;;;;;6.43;1.37;;;;;;;;;;6124332;23;20213;-83
2022/05/12 22:04:01;;;;;;;16.37;3.00;;;;;;;;;;6126324;23;20189;-83
2022/05/12 22:06:32;;;;;;;9.17;1.90;;;;;;;;;;6125196;23;20271;-83
2022/05/12 22:09:02;;;;;;;14.17;2.93;;;;;;;;;;6125061;23;20182;-83
2022/05/12 22:14:22;;;;;;;10.23;2.30;;;;;;;;;;6126381;23;20179;-83
2022/05/12 22:16:52;;;;;;;6.63;2.10;;;;;;;;;;6126604;23;20173;-83
2022/05/12 22:19:21;;;;;;;2.17;1.20;;;;;;;;;;6124670;23;20202;-84
2022/05/12 22:21:51;;;;;;;3.03;1.50;;;;;;;;;;6125036;23;20265;-83
2022/05/12 22:24:19;;;;;;;10.87;2.20;;;;;;;;;;6124965;23;20251;-83
2022/05/12 22:26:48;;;;;;;17.80;3.87;;;;;;;;;;6124920;23;20190;-83
2022/05/12 22:29:17;;;;;;;6.20;2.33;;;;;;;;;;6126750;23;20248;-84
2022/05/12 22:31:48;;;;;;;8.47;2.50;;;;;;;;;;6125133;23;20177;-83
2022/05/12 22:34:16;;;;;;;4.57;2.20;;;;;;;;;;6126449;23;20175;-83
2022/05/12 22:36:47;;;;;;;1.70;1.47;;;;;;;;;;6125453;23;20181;-84
2022/05/12 22:39:18;;;;;;;1.77;1.13;;;;;;;;;;6124917;23;20195;-84
2022/05/12 22:41:46;;;;;;;5.53;1.73;;;;;;;;;;6125192;23;20210;-83
2022/05/12 22:44:15;;;;;;;0.83;0.83;;;;;;;;;;6124870;23;20272;-83
2022/05/12 22:46:44;;;;;;;3.53;2.13;;;;;;;;;;6126694;23;20186;-82
2022/05/12 22:49:13;;;;;;;5.93;1.53;;;;;;;;;;6124521;23;20178;-84
2022/05/12 22:51:41;;;;;;;3.77;1.50;;;;;;;;;;6124990;23;20174;-84
2022/05/12 22:54:10;;;;;;;1.57;1.47;;;;;;;;;;6124558;23;20184;-84
2022/05/12 22:56:40;;;;;;;3.67;1.13;;;;;;;;;;6125219;23;20206;-83
2022/05/12 22:59:08;;;;;;;2.30;1.67;;;;;;;;;;6124826;23;20290;-83
2022/05/12 23:01:37;;;;;;;1.63;0.80;;;;;;;;;;6101083;23;20191;-83
2022/05/12 23:04:05;;;;;;;14.07;2.90;;;;;;;;;;6125824;23;20201;-83
2022/05/12 23:06:34;;;;;;;10.87;4.47;;;;;;;;;;6100494;23;20178;-83
2022/05/12 23:09:03;;;;;;;4.23;1.77;;;;;;;;;;6100553;23;20262;-83
2022/05/12 23:11:31;;;;;;;7.57;3.10;;;;;;;;;;6125986;23;20210;-84
2022/05/12 23:14:01;;;;;;;5.70;1.43;;;;;;;;;;6125003;23;20207;-84
2022/05/12 23:16:30;;;;;;;7.80;3.30;;;;;;;;;;6100428;23;20206;-84
2022/05/12 23:21:54;;;;;;;9.30;3.23;;;;;;;;;;6101017;23;20216;-84
2022/05/12 23:24:23;;;;;;;5.53;1.90;;;;;;;;;;6100544;23;20186;-84
2022/05/12 23:26:52;;;;;;;9.93;2.97;;;;;;;;;;6125936;23;20250;-83
2022/05/12 23:29:22;;;;;;;19.60;3.43;;;;;;;;;;6100179;23;20175;-83